Pagina principale
METAR-TAF:

METAR-TAF

Aeroporti :

Aeroporto di Osijek-Klisa

Osijek, Croazia

latitudine: 45-27N, longitudine: 018-48E, altezza: 88 m

Osservazione

Il bollettino è stato emesso 24 minuti fa, alle 22:30 UTC
Vento 4 kt da sud/sud-ovest
Temperature 1°C
Umidità 93%
Pressione 1009 hPa
Visibilità: 7000 m

METAR: LDOS 242230Z 20004KT 7000 NSC 01/M00 Q1009

Ora: 00:54 (22:54 UTC)

Previsione

Il bollettino è stato emesso 5 ore e 29 minuti fa, alle 17:25 UTC
Previsione valida dal 24 alle 18 UTC al 25 alle 18 UTC
Vento 10 kt da ovest
Visibilità 10 km o più
Nuvoloso ad un'altezza di 3000 ft
Evoluzione graduale
dal 24 alle 22 UTC al 25 alle 00 UTC
Vento 2 kt da direzioni variabili
Probabilità 40% :
Temporaneamente
dal 25 alle 00 UTC al 25 alle 05 UTC
Visibilità: 1000 m
banchi di nebbia,

TAF: LDOS 241725Z 2418/2518 28010KT 9999 BKN030 TX14/2513Z TN02/2504Z BECMG 2422/2500 VRB02KT PROB40 TEMPO 2500/2505 1000 BCFG

Osservazioni e previsioni meteorologiche di più di 4000 aeroporti (messaggi METAR e TAF).

Le stazioni disponibili sono rappresentate dai dischi gialli e rossi sulla carta.

Puntare il mouse per vedere il nome della stazione.

Clicca sopra per visualizzare le osservazioni e previsioni meteorologiche.

Per cambiare la mappa : fare clic sui pulsanti verdi con una croce nera per ingrandire, il pulsante verde con un trattino per diminuire, o sulla freccia verde per le mappe adiacenti.


METAR-TAF: